Airport Information

KTCM - McChord AFB

KTCM 251013Z AUTO 00000KT 9SM CLR 01/01 A3006 RMK AO2 VIS 1 3/4 RWY16/34 SLP185 FZRANO $


  • General Information

  • Coordinates: N 47°8'15"/ W 122°28'35"
  • Location: N/A
  • Surveyed Elevation: 322 MSL

Operations

Flow Name Active Runways Conditions
North Flow Landing: 34
Departing: 34
Wind Direction: 251-069°
Wind Speed: >5
South Flow Landing: 16
Departing: 16
Wind Direction: 070-250°
Wind Speed: ≤5 or CALM

Green background denotes normal operations.


Common Frequencies

Callsign Frequency Position Name
TCM_GND 118.170 Mc Chord Ground
TCM_TWR 124.800 Mc Chord Tower
KTCM_ATIS 109.600 Mc Chord ATIS

More at the Document Center


Charts

Name Description Cycle
ALDER TWO Page 1 1903
MOCAA THREE Page 1 1903
OLYMPIC FOUR Page 1 1903
PUGET SIX Page 1 1903
Name Description Cycle
ADYMS TWO Page 1 | Page 2 1903
ARRIE SEVEN Page 1 1903
ELLENSBURG THREE Page 1 1903
GLASR ONE Page 1 | Page 2 1903
JAWBN SIX Page 1 1903
WHYTE FIVE Page 1 1903